Time;durP1;ratioP1;P1;durP2;ratioP2;P2;SDS_P1;SDS_P2;PMS_P1;PMS_P2;Temp;Humidity;BMP_temperature;BMP_pressure;BME280_temperature;BME280_humidity;BME280_pressure;Samples;Min_cycle;Max_cycle;Signal;HPM_P1;HPM_P2
2022/07/04 00:00:15;;;;;;;6.05;4.32;;;;;;;;;;5016772;28;20132;-86
2022/07/04 00:02:42;;;;;;;9.27;4.38;;;13.70;99.90;;;;;;5033751;28;20045;-87
2022/07/04 00:05:10;;;;;;;7.65;4.55;;;;;;;;;;5016520;28;20044;-85
2022/07/04 00:07:46;;;;;;;8.70;4.15;;;;;;;;;;5029811;28;20034;-86
2022/07/04 00:10:13;;;;;;;4.88;3.92;;;;;;;;;;5049830;28;20080;-87
2022/07/04 00:12:40;;;;;;;8.43;4.35;;;;;;;;;;5033330;28;20045;-88
2022/07/04 00:15:06;;;;;;;7.55;4.03;;;;;;;;;;5016295;28;20033;-88
2022/07/04 00:17:33;;;;;;;4.88;4.00;;;;;;;;;;5011957;28;20405;-88
2022/07/04 00:19:59;;;;;;;6.35;4.20;;;;;;;;;;5046894;28;20047;-87
2022/07/04 00:22:25;;;;;;;3.88;3.50;;;;;;;;;;5032031;28;20049;-86
2022/07/04 00:24:52;;;;;;;7.97;4.05;;;;;;;;;;5014789;28;20442;-87
2022/07/04 00:27:18;;;;;;;4.93;3.90;;;;;;;;;;5031652;28;20046;-85
2022/07/04 00:29:44;;;;;;;4.93;4.10;;;;;;;;;;5016234;28;20092;-85
2022/07/04 00:32:10;;;;;;;7.93;4.50;;;;;;;;;;5032872;28;20090;-86
2022/07/04 00:34:36;;;;;;;7.75;4.03;;;;;;;;;;5050134;28;20175;-86
2022/07/04 00:37:03;;;;;;;4.28;3.83;;;;;;;;;;5033316;28;20044;-86
2022/07/04 00:39:29;;;;;;;6.20;3.70;;;;;;;;;;5013991;28;20144;-87
2022/07/04 00:41:55;;;;;;;6.00;3.65;;;;;;;;;;5051053;28;20037;-87
2022/07/04 00:44:21;;;;;;;6.47;4.32;;;;;;;;;;5030074;28;20053;-87
2022/07/04 00:46:47;;;;;;;5.18;4.47;;;;;;;;;;5049436;28;20116;-85
2022/07/04 00:49:15;;;;;;;6.80;4.57;;;13.30;99.90;;;;;;5030439;28;20040;-85
2022/07/04 00:51:42;;;;;;;3.83;3.40;;;;;;;;;;5015241;28;20406;-85
2022/07/04 00:54:10;;;;;;;5.28;4.47;;;13.20;99.90;;;;;;5020094;28;20037;-85
2022/07/04 00:56:36;;;;;;;5.05;4.40;;;;;;;;;;5020100;28;20065;-86
2022/07/04 00:59:02;;;;;;;4.97;3.97;;;;;;;;;;5022451;28;20052;-87
2022/07/04 01:01:29;;;;;;;4.78;4.28;;;;;;;;;;5035771;28;20044;-86
2022/07/04 01:03:56;;;;;;;4.30;3.90;;;13.30;99.90;;;;;;5037965;28;20042;-88
2022/07/04 01:06:22;;;;;;;5.55;4.25;;;;;;;;;;5022937;28;20199;-85
2022/07/04 01:08:48;;;;;;;5.05;3.75;;;;;;;;;;5020234;28;20048;-85
2022/07/04 01:11:15;;;;;;;6.28;5.43;;;;;;;;;;5036428;28;20038;-84
2022/07/04 01:13:41;;;;;;;7.97;4.50;;;;;;;;;;5036185;28;20084;-84
2022/07/04 01:16:08;;;;;;;5.32;4.50;;;;;;;;;;5038398;28;20045;-86
2022/07/04 01:18:34;;;;;;;6.63;4.43;;;;;;;;;;5034310;28;20052;-85
2022/07/04 01:21:00;;;;;;;8.68;4.93;;;;;;;;;;5036111;28;20037;-84
2022/07/04 01:23:26;;;;;;;5.00;4.40;;;;;;;;;;5038725;28;20056;-84
2022/07/04 01:25:56;;;;;;;14.55;5.43;;;;;;;;;;5019572;28;20041;-84
2022/07/04 01:28:22;;;;;;;6.03;5.13;;;;;;;;;;5053730;28;20059;-84
2022/07/04 01:30:48;;;;;;;6.97;4.57;;;;;;;;;;5056169;28;20045;-85
2022/07/04 01:33:17;;;;;;;10.40;5.20;;;;;;;;;;5036050;28;20045;-85
2022/07/04 01:35:43;;;;;;;5.38;4.88;;;;;;;;;;5055980;28;20056;-85
2022/07/04 01:38:09;;;;;;;5.93;4.80;;;;;;;;;;5056698;28;20086;-85
2022/07/04 01:40:35;;;;;;;10.18;5.05;;;;;;;;;;5018009;28;20045;-85
2022/07/04 01:43:01;;;;;;;10.23;4.85;;;;;;;;;;5038503;28;20045;-84
2022/07/04 01:45:28;;;;;;;8.10;5.18;;;;;;;;;;5056501;28;20097;-86
2022/07/04 01:47:57;;;;;;;8.70;4.70;;;;;;;;;;5037767;28;20489;-85
2022/07/04 01:50:23;;;;;;;7.95;5.30;;;;;;;;;;5037763;28;20563;-84
2022/07/04 01:52:49;;;;;;;5.82;5.20;;;;;;;;;;5038036;28;20102;-85
2022/07/04 01:55:15;;;;;;;5.20;4.70;;;;;;;;;;5035933;28;20146;-85
2022/07/04 01:57:41;;;;;;;9.38;5.05;;;;;;;;;;5036386;28;20041;-84
2022/07/04 02:02:53;;;;;;;10.45;5.03;;;;;;;;;;5032984;28;20053;-85
2022/07/04 02:05:19;;;;;;;5.97;5.28;;;;;;;;;;5017835;28;20037;-85
2022/07/04 02:07:45;;;;;;;7.43;4.72;;;;;;;;;;5032141;28;20418;-85
2022/07/04 02:10:11;;;;;;;8.57;5.32;;;;;;;;;;5034461;28;20105;-85
2022/07/04 02:15:22;;;;;;;9.00;5.40;;;;;;;;;;5034474;28;20091;-88
2022/07/04 02:17:48;;;;;;;6.25;5.47;;;;;;;;;;5035271;28;20037;-86
2022/07/04 02:20:15;;;;;;;7.00;4.80;;;;;;;;;;5015046;28;20038;-90
2022/07/04 02:22:41;;;;;;;9.95;5.72;;;;;;;;;;5034969;28;20535;-88
2022/07/04 02:25:08;;;;;;;6.63;5.38;;;;;;;;;;5035527;28;20033;-87
2022/07/04 02:27:34;;;;;;;6.85;5.65;;;;;;;;;;5016149;28;20045;-88
2022/07/04 02:30:00;;;;;;;8.68;4.93;;;;;;;;;;5018645;28;20057;-88
2022/07/04 02:32:26;;;;;;;9.00;5.68;;;;;;;;;;5014192;28;20136;-89
2022/07/04 02:34:52;;;;;;;6.30;5.13;;;;;;;;;;5034444;28;20051;-88
2022/07/04 02:37:18;;;;;;;9.82;5.13;;;;;;;;;;5015614;28;20037;-88
2022/07/04 02:39:45;;;;;;;9.95;5.70;;;;;;;;;;5032730;28;20045;-89
2022/07/04 02:42:11;;;;;;;7.50;5.18;;;;;;;;;;5033131;28;20040;-88
2022/07/04 02:44:37;;;;;;;9.50;6.28;;;;;;;;;;5015463;28;20049;-88
2022/07/04 02:47:03;;;;;;;5.72;5.00;;;;;;;;;;5015314;28;20132;-86
2022/07/04 02:49:29;;;;;;;15.23;6.65;;;;;;;;;;5031283;28;20054;-87
2022/07/04 02:51:55;;;;;;;6.57;5.53;;;;;;;;;;5034208;28;20041;-85
2022/07/04 02:54:21;;;;;;;8.13;6.13;;;;;;;;;;5032343;28;20037;-88
2022/07/04 02:56:47;;;;;;;10.35;6.45;;;;;;;;;;5035128;28;20033;-87
2022/07/04 02:59:13;;;;;;;9.45;5.90;;;;;;;;;;5015423;28;20406;-88
2022/07/04 03:01:39;;;;;;;11.13;6.30;;;;;;;;;;5017711;28;20041;-87
2022/07/04 03:04:05;;;;;;;8.18;6.70;;;;;;;;;;5013518;28;20203;-87
2022/07/04 03:06:31;;;;;;;7.97;5.70;;;;;;;;;;5033308;28;21288;-87
2022/07/04 03:08:57;;;;;;;9.73;7.57;;;;;;;;;;5033253;28;20520;-87
2022/07/04 03:11:23;;;;;;;7.13;5.88;;;;;;;;;;5014801;28;20130;-87
2022/07/04 03:13:49;;;;;;;7.38;5.93;;;;;;;;;;5015814;28;20037;-87
2022/07/04 03:16:15;;;;;;;11.23;6.13;;;;;;;;;;5017831;28;20052;-87
2022/07/04 03:18:41;;;;;;;8.52;6.53;;;;;;;;;;5033824;28;20080;-88
2022/07/04 03:21:08;;;;;;;7.40;5.90;;;;;;;;;;5053786;28;20068;-86
2022/07/04 03:23:34;;;;;;;8.82;7.15;;;;;;;;;;5052653;28;20401;-88
2022/07/04 03:26:00;;;;;;;10.77;6.10;;;;;;;;;;5037111;28;20053;-87
2022/07/04 03:28:27;;;;;;;9.63;6.55;;;;;;;;;;5052411;28;20041;-84
2022/07/04 03:30:53;;;;;;;13.00;6.28;;;;;;;;;;5051357;28;20428;-84
2022/07/04 03:33:19;;;;;;;7.38;6.45;;;;;;;;;;5017341;28;21454;-84
2022/07/04 03:35:46;;;;;;;10.30;6.95;;;;;;;;;;5050177;28;20044;-84
2022/07/04 03:38:12;;;;;;;8.15;6.85;;;;;;;;;;5050756;28;20075;-86
2022/07/04 03:40:38;;;;;;;8.32;6.38;;;;;;;;;;5030095;28;20049;-85
2022/07/04 03:43:08;;;;;;;11.65;6.90;;;;;;;;;;5029017;28;20045;-85
2022/07/04 03:45:34;;;;;;;9.35;7.47;;;;;;;;;;5051347;28;20049;-85
2022/07/04 03:48:03;;;;;;;7.63;6.57;;;;;;;;;;5051184;28;20044;-85
2022/07/04 03:50:29;;;;;;;10.52;6.65;;;;;;;;;;5032711;28;20165;-85
2022/07/04 03:52:55;;;;;;;10.80;6.78;;;;;;;;;;5049851;28;20044;-85
2022/07/04 03:55:21;;;;;;;14.57;7.28;;;;;;;;;;5031798;28;20037;-85
2022/07/04 03:57:47;;;;;;;9.02;7.07;;;;;;;;;;5030745;28;20047;-86
2022/07/04 04:00:13;;;;;;;8.02;6.55;;;;;;;;;;5033264;28;20386;-84
2022/07/04 04:02:39;;;;;;;12.48;8.25;;;;;;;;;;5031036;28;20072;-83
2022/07/04 04:07:51;;;;;;;18.35;9.93;;;;;;;;;;5047083;28;20126;-85
2022/07/04 04:10:17;;;;;;;19.17;11.10;;;;;;;;;;5033033;28;20131;-84
2022/07/04 04:12:43;;;;;;;16.77;12.43;;;;;;;;;;5049352;28;20052;-84
2022/07/04 04:15:11;;;;;;;18.88;12.40;;;;;;;;;;5028978;28;20041;-84
2022/07/04 04:17:37;;;;;;;17.85;12.77;;;;;;;;;;5030971;28;20433;-85
2022/07/04 04:20:04;;;;;;;16.65;11.65;;;;;;;;;;5047812;28;20079;-84
2022/07/04 04:22:30;;;;;;;17.25;10.90;;;;;;;;;;5050541;28;20049;-84
2022/07/04 04:24:56;;;;;;;16.88;11.30;;;;;;;;;;5050142;28;20555;-84
2022/07/04 04:27:22;;;;;;;14.35;10.82;;;;;;;;;;5031373;28;20045;-85
2022/07/04 04:29:48;;;;;;;14.60;11.55;;;;;;;;;;5015035;28;20092;-84
2022/07/04 04:32:14;;;;;;;13.05;11.23;;;;;;;;;;5032732;28;20051;-84
2022/07/04 04:34:40;;;;;;;18.83;9.98;;;;;;;;;;5044759;28;20051;-85
2022/07/04 04:37:06;;;;;;;12.93;10.73;;;;;;;;;;5050670;28;20071;-84
2022/07/04 04:39:32;;;;;;;9.65;8.38;;;;;;;;;;5050131;28;20056;-85
2022/07/04 04:41:59;;;;;;;14.07;8.48;;;;;;;;;;5033515;28;20783;-84
2022/07/04 04:44:25;;;;;;;10.88;7.32;;;;;;;;;;5016827;28;20066;-84
2022/07/04 04:46:51;;;;;;;10.23;6.43;;;;;;;;;;5018070;28;20053;-84
2022/07/04 04:49:18;;;;;;;14.48;6.60;;;;;;;;;;5032749;28;20099;-85
2022/07/04 04:51:44;;;;;;;9.50;6.68;;;;;;;;;;5033709;28;20049;-84
2022/07/04 04:54:10;;;;;;;7.80;6.57;;;;;;;;;;5016804;28;20044;-84
2022/07/04 04:56:36;;;;;;;8.13;6.13;;;;;;;;;;5030664;28;20041;-85
2022/07/04 04:59:03;;;;;;;6.97;6.10;;;;;;;;;;5050646;28;20068;-84
2022/07/04 05:01:29;;;;;;;7.35;6.05;;;;;;;;;;5017575;28;20112;-85
2022/07/04 05:03:55;;;;;;;8.27;6.32;;;;;;;;;;5051891;28;20095;-86
2022/07/04 05:06:21;;;;;;;9.50;6.30;;;;;;;;;;5034111;28;20044;-86
2022/07/04 05:08:48;;;;;;;9.27;5.63;;;;;;;;;;5051710;28;20150;-86
2022/07/04 05:11:14;;;;;;;7.93;6.35;;;;;;;;;;5015055;28;20124;-85
2022/07/04 05:13:40;;;;;;;8.77;6.22;;;;;;;;;;5031503;28;20045;-85
2022/07/04 05:16:06;;;;;;;7.78;6.40;;;;;;;;;;5033594;28;20068;-86
2022/07/04 05:18:32;;;;;;;6.97;6.07;;;;;;;;;;5032773;28;20041;-87
2022/07/04 05:20:59;;;;;;;10.68;6.10;;;;;;;;;;5052343;28;20060;-87
2022/07/04 05:23:25;;;;;;;10.88;6.55;;;;;;;;;;5017368;28;20739;-87
2022/07/04 05:25:51;;;;;;;11.20;6.20;;;;;;;;;;5018408;28;20044;-86
2022/07/04 05:28:18;;;;;;;8.02;6.22;;;;;;;;;;5032414;28;20145;-85
2022/07/04 05:30:44;;;;;;;8.85;6.18;;;;;;;;;;5016340;28;20052;-87
2022/07/04 05:33:11;;;;;;;11.00;5.93;;;;;;;;;;5032748;28;20041;-87
2022/07/04 05:35:37;;;;;;;5.88;5.10;;;;;;;;;;5014984;28;20054;-87
2022/07/04 05:38:03;;;;;;;7.45;5.38;;;;;;;;;;5016066;28;20096;-85
2022/07/04 05:40:29;;;;;;;6.00;5.40;;;;;;;;;;5034788;28;20091;-85
2022/07/04 05:42:56;;;;;;;6.05;5.15;;;;;;;;;;5017218;28;20387;-86
2022/07/04 05:45:22;;;;;;;8.35;5.40;;;;;;;;;;5018167;28;20056;-85
2022/07/04 05:47:48;;;;;;;7.28;5.65;;;;;;;;;;5001553;28;20056;-86
2022/07/04 05:50:14;;;;;;;6.18;5.40;;;;;;;;;;5018533;28;20046;-86
2022/07/04 05:52:41;;;;;;;8.27;5.80;;;;;;;;;;5018306;28;20053;-86
2022/07/04 05:55:07;;;;;;;8.98;5.40;;;;;;;;;;5011754;28;20084;-85
2022/07/04 05:57:34;;;;;;;14.80;5.55;;;;;;;;;;5018062;28;20045;-86
2022/07/04 06:00:00;;;;;;;8.63;5.30;;;;;;;;;;5016576;28;20041;-86
2022/07/04 06:02:27;;;;;;;7.82;4.95;;;;;;;;;;5018528;28;20060;-86
2022/07/04 06:04:53;;;;;;;9.25;5.80;;;;;;;;;;5018184;28;20105;-86
2022/07/04 06:07:19;;;;;;;7.40;5.03;;;;;;;;;;5036234;28;20524;-86
2022/07/04 06:09:45;;;;;;;6.80;5.30;;;;;;;;;;5017981;28;20053;-87
2022/07/04 06:12:12;;;;;;;7.88;4.85;;;;;;;;;;5016871;28;20064;-86
2022/07/04 06:14:38;;;;;;;9.35;5.32;;;;;;;;;;5001770;28;20080;-85
2022/07/04 06:17:04;;;;;;;6.60;4.72;;;;;;;;;;5018471;28;20061;-86
2022/07/04 06:19:31;;;;;;;12.48;5.75;;;;;;;;;;5025709;28;20048;-87
2022/07/04 06:21:57;;;;;;;7.07;5.10;;;;;;;;;;5017490;28;20041;-86
2022/07/04 06:24:23;;;;;;;7.25;5.43;;;;;;;;;;5015240;28;20093;-85
2022/07/04 06:26:49;;;;;;;9.35;5.15;;;;;;;;;;5033818;28;20485;-84
2022/07/04 06:29:19;;;;;;;10.05;5.32;;;16.20;99.90;;;;;;5034837;28;20057;-84
2022/07/04 06:31:47;;;;;;;8.05;5.22;;;;;;;;;;5025637;28;20050;-85
2022/07/04 06:37:00;;;;;;;7.75;5.22;;;;;;;;;;5033340;28;20129;-84
2022/07/04 06:39:26;;;;;;;6.43;4.45;;;;;;;;;;5015733;28;20045;-85
2022/07/04 06:41:52;;;;;;;10.35;5.00;;;;;;;;;;4997072;28;20045;-84
2022/07/04 06:44:18;;;;;;;7.82;5.22;;;;;;;;;;5031165;28;20104;-84
2022/07/04 06:46:45;;;;;;;7.75;4.40;;;;;;;;;;5044241;28;20057;-84
2022/07/04 06:49:12;;;;;;;8.27;4.47;;;;;;;;;;4991027;28;20053;-85
2022/07/04 06:51:39;;;;;;;10.15;4.25;;;;;;;;;;5042177;28;20061;-84
2022/07/04 06:54:06;;;;;;;6.18;4.60;;;;;;;;;;5008042;28;20366;-85
2022/07/04 06:56:33;;;;;;;7.50;5.18;;;17.00;99.90;;;;;;5043003;28;20053;-84
2022/07/04 06:58:59;;;;;;;9.52;5.22;;;;;;;;;;5009086;28;20045;-84
2022/07/04 07:01:25;;;;;;;10.10;5.15;;;;;;;;;;5032071;28;20127;-84
2022/07/04 07:03:52;;;;;;;10.55;5.22;;;;;;;;;;5019139;28;20041;-85
2022/07/04 07:06:18;;;;;;;11.27;4.45;;;;;;;;;;5039284;28;20040;-84
2022/07/04 07:08:44;;;;;;;9.10;4.47;;;;;;;;;;5016813;28;20077;-84
2022/07/04 07:11:13;;;;;;;8.57;4.50;;;;;;;;;;5016370;28;20095;-84
2022/07/04 07:13:44;;;;;;;13.85;3.72;;;17.40;99.90;;;;;;5007694;28;20115;-85
2022/07/04 07:16:10;;;;;;;6.35;4.00;;;;;;;;;;5027948;28;20136;-84
2022/07/04 07:18:46;;;;;;;7.07;3.55;;;17.40;99.90;;;;;;5033378;28;20049;-84
2022/07/04 07:21:15;;;;;;;7.85;4.00;;;;;;;;;;5033635;28;20037;-84
2022/07/04 07:23:49;;;;;;;9.50;5.00;;;;;;;;;;5034949;28;20056;-84
2022/07/04 07:26:18;;;;;;;9.73;4.20;;;;;;;;;;5017792;28;20045;-84
2022/07/04 07:28:44;;;;;;;7.85;4.53;;;;;;;;;;5034351;28;20311;-84
2022/07/04 07:31:13;;;;;;;9.25;4.75;;;17.70;99.90;;;;;;5035471;28;20052;-84
2022/07/04 07:33:39;;;;;;;25.38;3.83;;;;;;;;;;5002496;28;20041;-84
2022/07/04 07:36:05;;;;;;;10.65;4.43;;;;;;;;;;5033168;28;20033;-86
2022/07/04 07:38:31;;;;;;;7.22;3.30;;;;;;;;;;5020478;28;20167;-86
2022/07/04 07:40:57;;;;;;;5.85;3.88;;;;;;;;;;5031254;28;20490;-88
2022/07/04 07:43:24;;;;;;;7.47;3.58;;;;;;;;;;5032355;28;20060;-86
2022/07/04 07:45:50;;;;;;;6.28;3.58;;;;;;;;;;5023319;28;20049;-88
2022/07/04 07:48:16;;;;;;;10.65;2.95;;;;;;;;;;5024990;28;20049;-87
2022/07/04 07:50:42;;;;;;;7.97;2.92;;;;;;;;;;5026890;28;20049;-88
2022/07/04 07:53:08;;;;;;;10.38;3.25;;;;;;;;;;5015370;28;20037;-86
2022/07/04 07:55:34;;;;;;;5.68;2.72;;;;;;;;;;5014788;28;20124;-86
2022/07/04 07:58:01;;;;;;;9.50;2.53;;;;;;;;;;4998865;28;20041;-89
2022/07/04 08:00:27;;;;;;;5.97;2.70;;;;;;;;;;5047048;28;20038;-87
2022/07/04 08:05:39;;;;;;;3.83;3.00;;;17.90;99.90;;;;;;5014420;28;20128;-89
2022/07/04 08:08:07;;;;;;;3.05;1.52;;;;;;;;;;5028780;28;20398;-86
2022/07/04 08:10:33;;;;;;;2.55;1.60;;;;;;;;;;5025615;28;20075;-86
2022/07/04 08:12:59;;;;;;;5.50;1.55;;;;;;;;;;5001072;28;20045;-87
2022/07/04 08:15:25;;;;;;;3.20;1.30;;;;;;;;;;4999596;28;20056;-88
2022/07/04 08:17:53;;;;;;;4.05;1.40;;;;;;;;;;5023039;28;20041;-87
2022/07/04 08:20:19;;;;;;;2.45;1.27;;;;;;;;;;5032609;28;20052;-87
2022/07/04 08:22:45;;;;;;;5.35;1.10;;;;;;;;;;5015565;28;20056;-87
2022/07/04 08:25:11;;;;;;;1.50;1.10;;;;;;;;;;5032713;28;20123;-87
2022/07/04 08:27:37;;;;;;;2.65;1.48;;;;;;;;;;5031914;28;20430;-86
2022/07/04 08:30:05;;;;;;;6.57;1.20;;;;;;;;;;5022347;28;20064;-87
2022/07/04 08:32:32;;;;;;;3.00;1.40;;;;;;;;;;5015376;28;20088;-87
2022/07/04 08:34:58;;;;;;;5.45;1.38;;;;;;;;;;5031356;28;20037;-87
2022/07/04 08:37:28;;;;;;;3.00;1.63;;;;;;;;;;5014477;28;20465;-86
2022/07/04 08:39:54;;;;;;;2.97;1.10;;;;;;;;;;5016308;28;20057;-87
2022/07/04 08:42:21;;;;;;;1.80;1.40;;;18.60;99.90;;;;;;5016354;28;20042;-87
2022/07/04 08:44:52;;;;;;;1.20;1.10;;;18.90;99.90;;;;;;5015193;28;20053;-87
2022/07/04 08:47:21;;;;;;;1.30;1.17;;;19.10;99.90;;;;;;5015876;28;20038;-86
2022/07/04 08:50:25;;;;;;;4.95;1.50;;;19.00;99.90;;;;;;5031837;28;20053;-86
2022/07/04 08:53:00;;;;;;;5.93;1.25;;;19.10;99.90;;;;;;4959942;28;20055;-90
2022/07/04 08:58:30;;;;;;;1.38;1.10;;;;;;;;;;4956563;28;20130;-87
2022/07/04 09:00:58;;;;;;;2.20;1.20;;;19.30;99.90;;;;;;4966339;28;20117;-88
2022/07/04 09:03:25;;;;;;;6.07;1.48;;;19.40;99.90;;;;;;4949363;28;20582;-87
2022/07/04 09:05:52;;;;;;;3.28;1.70;;;;;;;;;;4964687;28;20043;-89
2022/07/04 09:08:18;;;;;;;1.92;1.70;;;;;;;;;;4961407;28;20146;-86
2022/07/04 09:10:44;;;;;;;3.08;1.52;;;;;;;;;;4963581;28;20054;-88
2022/07/04 09:13:12;;;;;;;7.75;1.25;;;19.30;99.90;;;;;;4974384;28;20050;-88
2022/07/04 09:15:38;;;;;;;2.95;1.30;;;;;;;;;;4968876;28;20058;-89
2022/07/04 09:18:04;;;;;;;3.70;1.10;;;;;;;;;;4985522;28;20073;-92
2022/07/04 09:20:32;;;;;;;3.20;1.42;;;19.40;99.90;;;;;;4958940;28;20042;-90
2022/07/04 09:22:58;;;;;;;2.88;1.33;;;;;;;;;;4983134;28;20062;-89
2022/07/04 09:25:25;;;;;;;1.60;1.27;;;19.50;99.90;;;;;;5000370;28;20063;-94
2022/07/04 09:27:53;;;;;;;1.48;1.33;;;19.80;99.90;;;;;;4983931;28;20054;-88
2022/07/04 09:30:24;;;;;;;1.88;1.20;;;19.70;99.90;;;;;;5010150;28;20072;-86
2022/07/04 09:32:53;;;;;;;4.18;1.58;;;19.90;99.90;;;;;;5034867;28;20041;-90
2022/07/04 09:35:25;;;;;;;2.50;1.50;;;19.80;99.90;;;;;;5044550;28;20097;-90
2022/07/04 09:37:53;;;;;;;2.42;1.45;;;20.20;99.90;;;;;;5025919;28;20033;-87
2022/07/04 09:40:27;;;;;;;1.55;1.30;;;20.20;99.90;;;;;;5044820;28;20052;-91
2022/07/04 09:42:55;;;;;;;1.58;1.48;;;20.40;99.90;;;;;;5027720;28;20053;-87
2022/07/04 09:45:23;;;;;;;7.15;1.27;;;;;;;;;;5059913;28;20056;-91
2022/07/04 09:47:53;;;;;;;2.50;1.48;;;20.40;99.90;;;;;;5042088;28;20271;-89
2022/07/04 09:50:20;;;;;;;2.20;1.40;;;20.40;99.90;;;;;;5054762;28;20090;-87
2022/07/04 09:52:50;;;;;;;3.50;1.48;;;20.30;99.90;;;;;;5054841;28;20125;-90
2022/07/04 09:55:25;;;;;;;4.53;1.33;;;19.80;99.90;;;;;;5053117;28;20045;-85
2022/07/04 09:57:52;;;;;;;2.30;1.58;;;19.90;99.90;;;;;;5054663;28;20033;-86
2022/07/04 10:00:23;;;;;;;2.13;1.33;;;19.70;99.90;;;;;;5054162;28;20033;-87
2022/07/04 10:02:50;;;;;;;9.13;1.95;;;19.70;99.90;;;;;;5016065;28;20132;-84
2022/07/04 10:05:21;;;;;;;3.42;1.80;;;19.60;99.90;;;;;;5052730;28;20091;-84
2022/07/04 10:07:48;;;;;;;6.53;2.58;;;;;;;;;;5021117;28;20069;-87
2022/07/04 10:10:27;;;;;;;2.55;1.30;;;20.00;99.90;;;;;;5053640;28;20076;-84
2022/07/04 10:12:55;;;;;;;1.95;1.50;;;19.90;99.90;;;;;;5054938;28;21140;-85
2022/07/04 10:15:21;;;;;;;2.25;1.42;;;;;;;;;;5054182;28;20036;-84
2022/07/04 10:17:47;;;;;;;1.60;1.40;;;20.00;99.90;;;;;;5054728;28;20049;-84
2022/07/04 10:20:13;;;;;;;3.15;1.58;;;;;;;;;;5038688;28;20045;-85
2022/07/04 10:22:40;;;;;;;2.85;1.30;;;19.80;99.90;;;;;;5035807;28;20080;-86
2022/07/04 10:25:07;;;;;;;1.83;1.35;;;19.80;99.90;;;;;;5019212;28;20124;-86
2022/07/04 10:27:34;;;;;;;3.10;1.23;;;;;;;;;;5053215;28;20099;-84
2022/07/04 10:30:01;;;;;;;1.40;1.30;;;19.50;99.90;;;;;;5036272;28;20064;-87
2022/07/04 10:32:28;;;;;;;1.95;1.77;;;19.40;99.90;;;;;;5053777;28;20044;-84
2022/07/04 10:34:54;;;;;;;4.47;1.42;;;;;;;;;;5035087;28;20049;-86
2022/07/04 10:37:21;;;;;;;2.53;1.45;;;;;;;;;;5052299;28;20413;-85
2022/07/04 10:39:47;;;;;;;4.50;2.28;;;;;;;;;;5017226;28;20451;-87
2022/07/04 10:42:24;;;;;;;3.05;1.20;;;20.00;99.90;;;;;;5035770;28;20040;-85
2022/07/04 10:44:50;;;;;;;2.22;1.33;;;;;;;;;;5053917;28;20045;-91
2022/07/04 10:47:24;;;;;;;2.92;1.48;;;19.80;99.90;;;;;;5019823;28;20052;-90
2022/07/04 10:49:50;;;;;;;;;;;20.10;99.90;;;;;;5056569;28;20130;-95
2022/07/04 10:52:16;;;;;;;2.50;1.10;;;;;;;;;;5039526;28;19921;-89
2022/07/04 10:54:44;;;;;;;1.45;1.35;;;20.20;99.90;;;;;;5044253;28;20040;-90
2022/07/04 10:57:13;;;;;;;2.33;1.58;;;20.20;99.90;;;;;;5057981;28;20045;-87
2022/07/04 11:00:01;;;;;;;5.97;1.20;;;20.10;99.90;;;;;;5052796;28;20049;-86
2022/07/04 11:02:27;;;;;;;4.35;0.70;;;;;;;;;;5054076;28;20052;-93
2022/07/04 11:04:53;;;;;;;2.30;1.10;;;;;;;;;;5054252;28;20040;-88
2022/07/04 11:07:42;;;;;;;1.98;1.40;;;20.20;99.90;;;;;;5055318;28;20116;-88
2022/07/04 11:10:33;;;;;;;0.90;0.80;;;20.20;99.90;;;;;;5022077;28;20053;-95
2022/07/04 11:13:00;;;;;;;2.88;1.20;;;;;;;;;;5012507;28;20093;-90
2022/07/04 11:15:27;;;;;;;1.08;0.90;;;;;;;;;;5013931;28;20060;-92
2022/07/04 11:17:54;;;;;;;1.25;1.05;;;20.40;99.90;;;;;;4997667;28;20061;-93
2022/07/04 11:20:21;;;;;;;2.47;1.15;;;20.50;99.90;;;;;;4998088;28;20054;-86
2022/07/04 11:22:47;;;;;;;1.08;0.98;;;;;;;;;;4994957;28;20054;-86
2022/07/04 11:25:13;;;;;;;3.00;1.35;;;20.70;99.90;;;;;;5011984;28;20133;-88
2022/07/04 11:27:39;;;;;;;2.85;1.20;;;;;;;;;;4995455;28;20042;-88
2022/07/04 11:30:07;;;;;;;2.88;1.00;;;20.60;99.90;;;;;;4994960;28;20057;-88
2022/07/04 11:32:34;;;;;;;3.95;1.08;;;21.10;99.90;;;;;;4979145;28;20511;-89
2022/07/04 11:35:01;;;;;;;1.55;0.90;;;20.80;99.90;;;;;;4997858;28;20479;-87
2022/07/04 11:37:27;;;;;;;4.90;1.33;;;;;;;;;;5013242;28;20042;-87
2022/07/04 11:45:23;;;;;;;0.82;0.82;;;21.10;99.90;;;;;;4993082;28;20053;-84
2022/07/04 11:47:50;;;;;;;2.38;1.38;;;;;;;;;;5012386;28;20038;-87
2022/07/04 11:50:18;;;;;;;1.40;0.90;;;21.20;99.90;;;;;;5011617;28;20619;-88
2022/07/04 11:52:46;;;;;;;3.00;1.25;;;21.10;99.90;;;;;;5038208;28;20033;-90
2022/07/04 11:55:17;;;;;;;1.75;1.02;;;21.30;99.90;;;;;;5051968;28;20051;-88
2022/07/04 11:57:47;;;;;;;4.85;1.00;;;21.20;99.90;;;;;;5032891;28;20068;-84
2022/07/04 12:00:15;;;;;;;3.03;1.17;;;21.40;99.90;;;;;;5033623;28;20044;-83
2022/07/04 12:02:42;;;;;;;3.13;0.77;;;21.40;99.90;;;;;;5051312;28;20052;-83
2022/07/04 12:05:10;;;;;;;1.02;0.73;;;21.30;99.90;;;;;;5032572;28;20045;-83
2022/07/04 12:07:38;;;;;;;2.38;0.88;;;21.30;99.90;;;;;;5012614;28;20052;-84
2022/07/04 12:10:13;;;;;;;3.72;1.35;;;21.40;99.90;;;;;;5049944;28;20405;-84
2022/07/04 12:12:53;;;;;;;0.90;0.77;;;21.30;99.90;;;;;;5034304;28;20513;-84
2022/07/04 12:15:19;;;;;;;4.55;0.90;;;21.10;99.90;;;;;;5050889;28;20055;-84
2022/07/04 12:17:48;;;;;;;1.63;1.15;;;;;;;;;;5032267;28;20076;-84
2022/07/04 12:20:17;;;;;;;5.45;1.25;;;20.90;99.90;;;;;;5049187;28;20493;-84
2022/07/04 12:22:50;;;;;;;1.08;0.98;;;21.20;99.90;;;;;;5017420;28;20045;-84
2022/07/04 12:25:43;;;;;;;1.70;1.23;;;21.10;99.90;;;;;;5033224;28;20047;-84
2022/07/04 12:28:16;;;;;;;1.88;1.13;;;21.20;99.90;;;;;;5051040;28;20081;-84
2022/07/04 12:30:53;;;;;;;3.08;0.98;;;21.40;99.90;;;;;;5016393;28;20115;-83
2022/07/04 12:33:27;;;;;;;2.40;1.17;;;21.00;99.90;;;;;;5050147;28;20099;-85
2022/07/04 12:35:56;;;;;;;2.80;1.40;;;21.10;99.90;;;;;;5033713;28;20099;-84
2022/07/04 12:38:27;;;;;;;2.05;1.20;;;21.10;99.90;;;;;;5051114;28;20044;-83
2022/07/04 12:41:04;;;;;;;3.20;1.10;;;21.30;99.90;;;;;;5033360;28;20120;-84
2022/07/04 12:43:42;;;;;;;1.45;1.00;;;21.30;99.90;;;;;;5033244;28;20085;-83
2022/07/04 12:46:24;;;;;;;8.60;1.23;;;21.30;99.90;;;;;;5050885;28;20041;-83
2022/07/04 12:48:50;;;;;;;5.45;1.10;;;21.10;99.90;;;;;;5050273;28;20045;-83
2022/07/04 12:51:24;;;;;;;1.17;0.90;;;21.10;99.90;;;;;;5051064;28;20055;-83
2022/07/04 12:53:53;;;;;;;3.22;1.42;;;21.10;99.90;;;;;;5013078;28;20116;-84
2022/07/04 12:56:42;;;;;;;2.55;0.93;;;21.10;99.90;;;;;;5049451;28;20032;-84
2022/07/04 12:59:14;;;;;;;3.25;0.90;;;21.10;99.90;;;;;;5031433;28;20063;-84
2022/07/04 13:01:42;;;;;;;2.00;0.93;;;20.90;99.90;;;;;;5050754;28;20573;-83
2022/07/04 13:04:08;;;;;;;1.95;1.00;;;;;;;;;;5050876;28;20112;-83
2022/07/04 13:06:34;;;;;;;1.30;0.75;;;;;;;;;;5033688;28;20041;-83
2022/07/04 13:09:01;;;;;;;4.63;0.90;;;20.70;99.90;;;;;;5032319;28;20051;-83
2022/07/04 13:14:12;;;;;;;1.80;0.73;;;;;;;;;;5031729;28;20042;-83
2022/07/04 13:16:38;;;;;;;2.40;0.80;;;;;;;;;;5031933;28;20060;-84
2022/07/04 13:19:04;;;;;;;3.13;0.70;;;;;;;;;;5049904;28;20041;-84
2022/07/04 13:21:30;;;;;;;1.17;0.88;;;20.80;99.90;;;;;;5032951;28;20047;-84
2022/07/04 13:23:56;;;;;;;2.17;0.68;;;;;;;;;;5048332;28;20045;-83
2022/07/04 13:26:23;;;;;;;2.40;0.95;;;;;;;;;;5049952;28;20131;-84
2022/07/04 13:28:48;;;;;;;4.25;1.05;;;20.90;99.90;;;;;;5049335;28;20158;-82
2022/07/04 13:31:15;;;;;;;3.92;0.60;;;;;;;;;;5016118;28;20497;-86
2022/07/04 13:33:41;;;;;;;1.83;0.70;;;;;;;;;;5050237;28;20045;-89
2022/07/04 13:36:07;;;;;;;0.90;0.70;;;21.40;99.90;;;;;;5031647;28;20518;-89
2022/07/04 13:38:33;;;;;;;3.50;1.20;;;;;;;;;;5033633;28;20063;-89
2022/07/04 13:40:59;;;;;;;2.88;0.73;;;21.60;99.90;;;;;;5034166;28;20057;-90
2022/07/04 13:43:27;;;;;;;3.80;2.33;;;21.40;99.90;;;;;;5033944;28;20071;-87
2022/07/04 13:45:54;;;;;;;2.28;0.80;;;21.60;99.90;;;;;;5031178;28;20051;-85
2022/07/04 13:48:20;;;;;;;0.43;0.43;;;21.80;99.90;;;;;;5049400;28;20429;-84
2022/07/04 13:50:46;;;;;;;3.10;0.70;;;;;;;;;;5049164;28;20382;-88
2022/07/04 13:53:12;;;;;;;0.70;0.70;;;21.80;99.90;;;;;;5049035;28;20080;-85
2022/07/04 13:55:38;;;;;;;1.85;0.60;;;21.80;99.90;;;;;;5030078;28;20080;-86
2022/07/04 13:58:05;;;;;;;2.60;0.85;;;21.80;99.90;;;;;;5050131;28;20041;-84
2022/07/04 14:00:32;;;;;;;2.40;0.70;;;;;;;;;;5050560;28;20052;-87
2022/07/04 14:02:58;;;;;;;6.03;0.98;;;;;;;;;;5018288;28;20075;-85
2022/07/04 14:05:24;;;;;;;1.13;0.60;;;;;;;;;;5020016;28;20036;-85
2022/07/04 14:07:51;;;;;;;2.67;0.70;;;21.60;99.90;;;;;;5052232;28;20397;-88
2022/07/04 14:10:17;;;;;;;2.78;1.05;;;;;;;;;;5034841;28;20431;-89
2022/07/04 14:12:43;;;;;;;2.05;0.70;;;;;;;;;;5035433;28;20040;-87
2022/07/04 14:15:10;;;;;;;1.13;0.70;;;;;;;;;;5053096;28;20420;-84
2022/07/04 14:17:36;;;;;;;3.97;0.68;;;21.60;99.90;;;;;;5035679;28;20175;-87
2022/07/04 14:20:03;;;;;;;1.27;0.60;;;22.00;99.90;;;;;;5038813;28;20048;-87
2022/07/04 14:22:30;;;;;;;1.92;0.90;;;;;;;;;;5039572;28;20040;-86
2022/07/04 14:24:55;;;;;;;4.78;0.88;;;21.80;99.90;;;;;;5054505;28;20055;-86
2022/07/04 14:27:22;;;;;;;3.63;0.73;;;;;;;;;;5035452;28;20123;-88
2022/07/04 14:29:48;;;;;;;2.25;0.60;;;;;;;;;;5054708;28;20136;-86